Time;durP1;ratioP1;P1;durP2;ratioP2;P2;SDS_P1;SDS_P2;PMS_P1;PMS_P2;Temp;Humidity;BMP_temperature;BMP_pressure;BME280_temperature;BME280_humidity;BME280_pressure;Samples;Min_cycle;Max_cycle;Signal;HPM_P1;HPM_P2
2023/06/08 00:00:12;;;;;;;14.35;5.35;;;;;;;;;;4907737;28;20051;-71
2023/06/08 00:02:39;;;;;;;19.10;5.88;;;;;;;;;;4924520;28;20518;-71
2023/06/08 00:05:07;;;;;;;15.15;6.43;;;;;;;;;;4926766;28;20418;-71
2023/06/08 00:07:34;;;;;;;20.27;6.07;;;;;;;;;;4913545;28;20456;-71
2023/06/08 00:10:00;;;;;;;13.88;5.25;;;;;;;;;;4926724;28;20058;-71
2023/06/08 00:12:27;;;;;;;17.33;5.70;;;;;;;;;;4924777;28;20135;-71
2023/06/08 00:14:53;;;;;;;15.65;5.63;;;;;;;;;;4927704;28;20043;-72
2023/06/08 00:17:19;;;;;;;16.73;5.40;;;;;;;;;;4906934;28;20054;-73
2023/06/08 00:19:45;;;;;;;18.42;5.43;;;;;;;;;;4927310;28;20130;-72
2023/06/08 00:22:12;;;;;;;14.13;4.63;;;;;;;;;;4926490;28;20442;-72
2023/06/08 00:24:38;;;;;;;12.27;4.70;;;;;;;;;;4927456;28;20043;-71
2023/06/08 00:27:05;;;;;;;11.10;4.63;;;;;;;;;;4929462;28;20157;-71
2023/06/08 00:29:32;;;;;;;14.93;4.88;;;;;;;;;;4916015;28;20106;-71
2023/06/08 00:31:58;;;;;;;16.52;5.15;;;;;;;;;;4900433;28;20059;-72
2023/06/08 00:34:25;;;;;;;19.05;5.40;;;;;;;;;;4930175;28;20051;-72
2023/06/08 00:36:51;;;;;;;20.27;5.55;;;;;;;;;;4917449;28;20035;-71
2023/06/08 00:39:17;;;;;;;12.77;4.78;;;;;;;;;;4932869;28;20045;-71
2023/06/08 00:41:43;;;;;;;21.27;5.57;;;;;;;;;;4920005;28;20141;-71
2023/06/08 00:44:10;;;;;;;21.42;5.78;;;;;;;;;;4910822;28;20483;-71
2023/06/08 00:46:36;;;;;;;14.27;5.50;;;;;;;;;;4925247;28;20078;-72
2023/06/08 00:49:03;;;;;;;18.40;5.50;;;;;;;;;;4912782;28;20058;-72
2023/06/08 00:51:32;;;;;;;16.35;5.18;;;;;;;;;;4928781;28;20130;-72
2023/06/08 00:53:58;;;;;;;19.13;5.80;;;;;;;;;;4909762;28;20133;-71
2023/06/08 00:56:31;;;;;;;15.70;5.57;;;;;;;;;;4915149;28;20054;-72
2023/06/08 00:59:00;;;;;;;16.20;5.22;;;;;;;;;;4924696;28;20039;-72
2023/06/08 01:01:30;;;;;;;14.40;5.07;;;;;;;;;;4910560;28;20047;-71
2023/06/08 01:04:05;;;;;;;10.43;4.90;;;;;;;;;;4911730;28;20047;-72
2023/06/08 01:06:32;;;;;;;16.13;6.07;;;;;;;;;;4928330;28;20066;-72
2023/06/08 01:09:07;;;;;;;16.90;5.97;;;;;;;;;;4928797;28;20039;-71
2023/06/08 01:11:40;;;;;;;15.40;5.47;;;;;;;;;;4905264;28;20130;-72
2023/06/08 01:14:09;;;;;;;13.70;5.80;;;;;;;;;;4909156;28;21051;-72
2023/06/08 01:16:38;;;;;;;13.70;5.75;;;;;;;;;;4926586;28;20054;-72
2023/06/08 01:19:10;;;;;;;11.65;4.80;;;;;;;;;;4926576;28;20039;-71
2023/06/08 01:22:00;;;;;;;12.68;4.82;;;;;;;;;;4928046;28;20557;-72
2023/06/08 01:24:30;;;;;;;17.17;5.80;;;;;;;;;;4928658;28;20742;-71
2023/06/08 01:26:59;;;;;;;16.63;5.18;;;;;;;;;;4924432;28;20048;-71
2023/06/08 01:29:27;;;;;;;14.98;5.47;;;;;;;;;;4908593;28;20099;-72
2023/06/08 01:31:54;;;;;;;16.42;5.45;;;;;;;;;;4924532;28;20063;-71
2023/06/08 01:34:21;;;;;;;16.35;6.22;;;;;;;;;;4926318;28;20054;-72
2023/06/08 01:36:56;;;;;;;13.07;5.28;;;;;;;;;;4923289;28;20070;-71
2023/06/08 01:39:22;;;;;;;18.27;5.97;;;;;;;;;;4923868;28;20043;-71
2023/06/08 01:41:50;;;;;;;15.43;6.28;;;;;;;;;;4926691;28;20039;-72
2023/06/08 01:44:19;;;;;;;15.55;5.00;;;;;;;;;;4912273;28;20495;-71
2023/06/08 01:46:50;;;;;;;15.57;5.32;;;;;;;;;;4923645;28;20054;-71
2023/06/08 01:49:16;;;;;;;15.18;5.97;;;;;;;;;;4912022;28;20055;-72
2023/06/08 01:51:43;;;;;;;20.35;6.05;;;;;;;;;;4919372;28;20134;-72
2023/06/08 01:54:09;;;;;;;17.52;5.22;;;;;;;;;;4925371;28;20050;-71
2023/06/08 01:56:35;;;;;;;18.10;5.63;;;;;;;;;;4905808;28;20111;-72
2023/06/08 01:59:02;;;;;;;19.85;5.22;;;;;;;;;;4910504;28;20910;-71
2023/06/08 02:01:28;;;;;;;14.25;5.43;;;;;;;;;;4915822;28;20047;-72
2023/06/08 02:03:54;;;;;;;19.90;5.20;;;;;;;;;;4912418;29;20075;-72
2023/06/08 02:06:20;;;;;;;19.60;5.40;;;;;;;;;;4926250;28;20047;-72
2023/06/08 02:08:47;;;;;;;16.95;5.07;;;;;;;;;;4928636;28;20126;-71
2023/06/08 02:11:13;;;;;;;15.18;5.20;;;;;;;;;;4926969;28;20047;-71
2023/06/08 02:13:43;;;;;;;15.05;5.32;;;;;;;;;;4927970;28;20138;-72
2023/06/08 02:16:09;;;;;;;15.05;5.30;;;;;;;;;;4923376;28;20041;-71
2023/06/08 02:18:40;;;;;;;17.23;5.68;;;;;;;;;;4928354;28;20167;-71
2023/06/08 02:21:07;;;;;;;15.93;5.40;;;;;;;;;;4926172;28;20503;-71
2023/06/08 02:23:33;;;;;;;16.02;5.22;;;;;;;;;;4912461;28;20074;-71
2023/06/08 02:26:00;;;;;;;15.43;5.72;;;;;;;;;;4923884;28;20094;-71
2023/06/08 02:28:26;;;;;;;14.48;4.70;;;;;;;;;;4927251;28;20043;-71
2023/06/08 02:30:52;;;;;;;17.65;5.15;;;;;;;;;;4926814;28;20042;-71
2023/06/08 02:33:20;;;;;;;18.00;5.13;;;;;;;;;;4913999;28;20051;-71
2023/06/08 02:35:46;;;;;;;12.60;4.50;;;;;;;;;;4915717;28;20051;-71
2023/06/08 02:38:12;;;;;;;15.38;4.40;;;;;;;;;;4935619;28;20050;-72
2023/06/08 02:40:38;;;;;;;16.80;4.95;;;;;;;;;;4920823;28;20055;-71
2023/06/08 02:43:05;;;;;;;14.52;4.82;;;;;;;;;;4923524;28;20061;-71
2023/06/08 02:45:31;;;;;;;18.60;5.40;;;;;;;;;;4905472;28;20063;-71
2023/06/08 02:48:00;;;;;;;19.10;7.53;;;;;;;;;;4914864;28;20043;-71
2023/06/08 02:50:26;;;;;;;19.25;5.25;;;;;;;;;;4919367;28;20053;-71
2023/06/08 02:52:52;;;;;;;14.25;5.47;;;;;;;;;;4927626;28;20081;-71
2023/06/08 02:55:18;;;;;;;20.77;5.50;;;;;;;;;;4911930;28;20952;-72
2023/06/08 02:57:49;;;;;;;20.50;6.10;;;;;;;;;;4911393;28;20063;-70
2023/06/08 03:00:15;;;;;;;17.17;5.43;;;;;;;;;;4927772;28;20151;-71
2023/06/08 03:02:41;;;;;;;19.65;5.88;;;;;;;;;;4925185;28;20780;-71
2023/06/08 03:05:08;;;;;;;22.02;5.95;;;;;;;;;;4921295;28;20043;-71
2023/06/08 03:07:36;;;;;;;22.95;7.05;;;;;;;;;;4925192;28;20048;-71
2023/06/08 03:10:05;;;;;;;21.02;5.75;;;;;;;;;;4925645;28;20142;-70
2023/06/08 03:12:31;;;;;;;14.85;5.53;;;;;;;;;;4922464;28;20043;-71
2023/06/08 03:14:58;;;;;;;15.32;4.95;;;;;;;;;;4923114;28;20537;-71
2023/06/08 03:17:24;;;;;;;21.08;6.47;;;;;;;;;;4908531;28;20047;-71
2023/06/08 03:19:55;;;;;;;20.40;6.32;;;;;;;;;;4924319;28;20048;-71
2023/06/08 03:22:21;;;;;;;15.32;5.45;;;;;;;;;;4923724;28;20173;-71
2023/06/08 03:24:48;;;;;;;17.20;5.80;;;;;;;;;;4925159;28;20080;-72
2023/06/08 03:27:15;;;;;;;16.88;5.90;;;;;;;;;;4924513;28;20123;-71
2023/06/08 03:29:41;;;;;;;18.65;5.93;;;;;;;;;;4909398;28;20055;-70
2023/06/08 03:32:07;;;;;;;23.02;7.15;;;;;;;;;;4925113;28;20164;-71
2023/06/08 03:34:33;;;;;;;25.52;6.05;;;;;;;;;;4893280;28;20049;-72
2023/06/08 03:37:00;;;;;;;16.83;6.10;;;;;;;;;;4909359;28;20043;-73
2023/06/08 03:39:26;;;;;;;23.48;6.30;;;;;;;;;;4909433;28;20154;-72
2023/06/08 03:41:52;;;;;;;18.35;6.18;;;;;;;;;;4924247;28;20035;-72
2023/06/08 03:44:18;;;;;;;18.60;6.65;;;;;;;;;;4913942;28;20759;-72
2023/06/08 03:46:46;;;;;;;18.88;5.03;;;;;;;;;;4908575;28;20058;-73
2023/06/08 03:49:12;;;;;;;16.90;5.63;;;;;;;;;;4915393;28;20046;-72
2023/06/08 03:51:38;;;;;;;21.00;6.15;;;;;;;;;;4897986;28;20656;-72
2023/06/08 03:54:04;;;;;;;21.67;6.40;;;;;;;;;;4906822;28;20051;-72
2023/06/08 03:56:30;;;;;;;25.05;5.82;;;;;;;;;;4908821;28;20058;-72
2023/06/08 03:58:57;;;;;;;24.40;6.28;;;;;;;;;;4902492;28;21420;-72
2023/06/08 04:01:23;;;;;;;17.63;5.95;;;;;;;;;;4922127;28;20051;-71
2023/06/08 04:03:50;;;;;;;18.02;5.60;;;;;;;;;;4908927;28;20055;-72
2023/06/08 04:06:16;;;;;;;18.08;5.85;;;;;;;;;;4921551;28;22017;-72
2023/06/08 04:08:44;;;;;;;20.20;5.70;;;;;;;;;;4909953;28;20058;-72
2023/06/08 04:11:10;;;;;;;13.55;5.20;;;;;;;;;;4924721;28;20143;-73
2023/06/08 04:13:38;;;;;;;17.65;5.45;;;;;;;;;;4926770;28;20079;-71
2023/06/08 04:16:08;;;;;;;15.10;5.88;;;;;;;;;;4892420;29;20058;-72
2023/06/08 04:18:34;;;;;;;14.88;5.40;;;;;;;;;;4920927;28;20051;-72
2023/06/08 04:21:00;;;;;;;16.33;5.15;;;;;;;;;;4911952;28;20499;-72
2023/06/08 04:23:27;;;;;;;19.75;5.43;;;;;;;;;;4910871;28;20059;-72
2023/06/08 04:25:54;;;;;;;17.60;6.28;;;;;;;;;;4926404;28;20139;-72
2023/06/08 04:28:21;;;;;;;22.15;5.68;;;;;;;;;;4925885;28;20062;-72
2023/06/08 04:30:48;;;;;;;14.73;5.40;;;;;;;;;;4925579;28;20051;-72
2023/06/08 04:33:16;;;;;;;19.98;5.25;;;;;;;;;;4911648;28;20165;-72
2023/06/08 04:35:43;;;;;;;21.85;6.28;;;;;;;;;;4926157;28;20039;-73
2023/06/08 04:38:14;;;;;;;17.75;5.47;;;;;;;;;;4928370;28;20055;-72
2023/06/08 04:40:53;;;;;;;22.98;6.28;;;;;;;;;;4924700;28;20247;-72
2023/06/08 04:43:29;;;;;;;23.13;5.75;;;;;;;;;;4902310;29;22193;-72
2023/06/08 04:45:59;;;;;;;14.68;5.07;;;;;;;;;;4906250;28;20090;-72
2023/06/08 04:48:26;;;;;;;19.15;5.82;;;;;;;;;;4927773;28;20051;-72
2023/06/08 04:50:52;;;;;;;18.00;5.90;;;;;;;;;;4925963;28;20052;-72
2023/06/08 04:53:21;;;;;;;19.17;5.45;;;;;;;;;;4908500;28;20043;-72
2023/06/08 04:55:48;;;;;;;14.77;5.75;;;;;;;;;;4925522;28;20050;-72
2023/06/08 04:58:15;;;;;;;15.38;5.10;;;;;;;;;;4912356;28;20127;-72
2023/06/08 05:00:41;;;;;;;25.58;5.85;;;;;;;;;;4915777;28;20154;-73
2023/06/08 05:03:08;;;;;;;15.77;5.68;;;;;;;;;;4911993;28;20083;-72
2023/06/08 05:05:34;;;;;;;14.68;4.78;;;;;;;;;;4923681;28;20110;-72
2023/06/08 05:08:00;;;;;;;16.70;5.20;;;;;;;;;;4921944;28;20047;-71
2023/06/08 05:10:26;;;;;;;14.27;5.53;;;;;;;;;;4908886;28;20047;-72
2023/06/08 05:12:55;;;;;;;10.20;4.90;;;;;;;;;;4912024;28;20547;-72
2023/06/08 05:15:21;;;;;;;14.90;4.93;;;;;;;;;;4933749;28;20047;-72
2023/06/08 05:17:48;;;;;;;15.52;4.80;;;;;;;;;;4931610;28;20578;-71
2023/06/08 05:20:14;;;;;;;18.05;5.28;;;;;;;;;;4924576;28;20053;-72
2023/06/08 05:22:41;;;;;;;21.58;5.82;;;;;;;;;;4927785;28;20939;-71
2023/06/08 05:25:07;;;;;;;7.97;4.35;;;;;;;;;;4924551;28;20316;-72
2023/06/08 05:27:33;;;;;;;11.88;4.40;;;;;;;;;;4940597;28;20055;-72
2023/06/08 05:29:59;;;;;;;13.20;4.53;;;;;;;;;;4920179;28;20114;-72
2023/06/08 05:32:25;;;;;;;18.10;5.22;;;;;;;;;;4918524;28;20055;-72
2023/06/08 05:34:51;;;;;;;16.10;4.63;;;;;;;;;;4928876;28;20043;-72
2023/06/08 05:37:17;;;;;;;16.70;5.28;;;;;;;;;;4911176;28;20499;-72
2023/06/08 05:39:43;;;;;;;16.15;4.78;;;;;;;;;;4927220;28;20054;-72
2023/06/08 05:42:10;;;;;;;19.65;5.10;;;;;;;;;;4923860;28;20043;-72
2023/06/08 05:44:36;;;;;;;11.65;4.15;;;;;;;;;;4929236;28;20066;-72
2023/06/08 05:47:02;;;;;;;13.07;4.30;;;;;;;;;;4928654;28;20043;-72
2023/06/08 05:49:29;;;;;;;19.92;4.95;;;;;;;;;;4928345;28;20062;-72
2023/06/08 05:51:55;;;;;;;15.00;5.25;;;;;;;;;;4924707;28;20040;-72
2023/06/08 05:54:21;;;;;;;17.83;5.28;;;;;;;;;;4930675;28;20063;-72
2023/06/08 05:56:47;;;;;;;16.42;4.43;;;;;;;;;;4927692;28;20094;-72
2023/06/08 05:59:13;;;;;;;16.80;4.90;;;;;;;;;;4911840;28;20047;-72
2023/06/08 06:01:39;;;;;;;13.02;4.40;;;;;;;;;;4925778;28;20197;-72
2023/06/08 06:04:06;;;;;;;22.40;5.25;;;;;;;;;;4914841;28;20055;-72
2023/06/08 06:06:32;;;;;;;17.27;5.13;;;;;;;;;;4929935;28;20047;-72
2023/06/08 06:08:58;;;;;;;15.20;4.55;;;;;;;;;;4928153;28;20047;-71
2023/06/08 06:11:25;;;;;;;14.95;4.72;;;;;;;;;;4918850;28;20070;-72
2023/06/08 06:13:51;;;;;;;16.48;5.00;;;;;;;;;;4914537;28;20046;-71
2023/06/08 06:16:18;;;;;;;19.73;4.90;;;;;;;;;;4929260;28;20663;-71
2023/06/08 06:18:46;;;;;;;14.77;5.05;;;;;;;;;;4929201;28;20039;-71
2023/06/08 06:21:13;;;;;;;12.90;5.00;;;;;;;;;;4927715;28;20202;-72
2023/06/08 06:23:39;;;;;;;13.50;5.38;;;;;;;;;;4913185;28;20047;-68
2023/06/08 06:26:05;;;;;;;20.13;5.25;;;;;;;;;;4925444;28;21566;-68
2023/06/08 06:28:32;;;;;;;21.80;4.78;;;;;;;;;;4912009;28;20146;-68
2023/06/08 06:30:58;;;;;;;16.45;4.47;;;;;;;;;;4926941;28;20150;-67
2023/06/08 06:33:24;;;;;;;17.75;5.38;;;;;;;;;;4926550;28;20039;-67
2023/06/08 06:35:51;;;;;;;19.30;4.47;;;;;;;;;;4921583;28;20051;-68
2023/06/08 06:38:18;;;;;;;20.55;5.13;;;;;;;;;;4915053;28;20054;-67
2023/06/08 06:40:44;;;;;;;17.67;4.95;;;;;;;;;;4914639;28;20058;-68
2023/06/08 06:43:10;;;;;;;18.42;5.43;;;;;;;;;;4928023;28;20083;-68
2023/06/08 06:45:38;;;;;;;26.27;5.28;;;;;;;;;;4930034;28;20079;-68
2023/06/08 06:48:04;;;;;;;15.30;4.50;;;;;;;;;;4915496;28;20172;-68
2023/06/08 06:50:31;;;;;;;13.57;5.03;;;;;;;;;;4919329;28;20051;-68
2023/06/08 06:52:57;;;;;;;18.98;5.32;;;;;;;;;;4909859;28;20051;-68
2023/06/08 06:55:23;;;;;;;11.60;5.60;;;;;;;;;;4915867;28;21043;-68
2023/06/08 06:57:49;;;;;;;14.00;5.25;;;;;;;;;;4913660;29;21064;-68
2023/06/08 07:00:15;;;;;;;9.60;4.53;;;;;;;;;;4928964;28;20039;-67
2023/06/08 07:02:42;;;;;;;16.63;4.78;;;;;;;;;;4923174;28;20050;-68
2023/06/08 07:05:10;;;;;;;16.27;5.35;;;;;;;;;;4914562;28;20047;-68
2023/06/08 07:07:36;;;;;;;15.43;4.70;;;;;;;;;;4914370;28;20097;-68
2023/06/08 07:10:02;;;;;;;15.82;5.13;;;;;;;;;;4930385;28;20047;-68
2023/06/08 07:12:30;;;;;;;20.20;5.07;;;;;;;;;;4925808;28;20044;-68
2023/06/08 07:14:56;;;;;;;17.55;4.90;;;;;;;;;;4912158;28;20109;-69
2023/06/08 07:17:22;;;;;;;20.50;5.68;;;;;;;;;;4911731;28;20045;-69
2023/06/08 07:19:51;;;;;;;16.85;5.10;;;;;;;;;;4903572;28;20055;-69
2023/06/08 07:22:17;;;;;;;13.07;4.50;;;;;;;;;;4910361;28;20107;-69
2023/06/08 07:24:43;;;;;;;11.60;4.13;;;;;;;;;;4914868;28;20165;-69
2023/06/08 07:27:10;;;;;;;15.15;5.40;;;;;;;;;;4910432;28;20521;-66
2023/06/08 07:29:36;;;;;;;14.18;4.30;;;;;;;;;;4896162;28;20039;-69
2023/06/08 07:32:02;;;;;;;19.88;5.10;;;;;;;;;;4924989;28;20047;-68
2023/06/08 07:34:28;;;;;;;18.27;4.82;;;;;;;;;;4909974;28;20066;-68
2023/06/08 07:36:55;;;;;;;13.65;5.32;;;;;;;;;;4911983;28;20043;-68
2023/06/08 07:39:21;;;;;;;17.65;4.75;;;;;;;;;;4928367;28;20036;-68
2023/06/08 07:41:47;;;;;;;14.05;4.50;;;;;;;;;;4915676;28;20055;-68
2023/06/08 07:44:13;;;;;;;12.55;4.30;;;;;;;;;;4926538;28;20047;-68
2023/06/08 07:46:39;;;;;;;14.68;4.88;;;;;;;;;;4931758;28;20070;-68
2023/06/08 07:49:05;;;;;;;14.30;4.72;;;;;;;;;;4929115;28;20081;-68
2023/06/08 07:51:31;;;;;;;22.55;5.13;;;;;;;;;;4934357;28;20035;-68
2023/06/08 07:53:57;;;;;;;16.55;4.82;;;;;;;;;;4929522;28;20038;-68
2023/06/08 07:56:24;;;;;;;15.70;5.10;;;;;;;;;;4926391;28;20089;-68
2023/06/08 07:58:50;;;;;;;15.48;4.72;;;;;;;;;;4929509;28;20047;-68
2023/06/08 08:01:16;;;;;;;18.17;4.82;;;;;;;;;;4909544;28;20062;-67
2023/06/08 08:03:42;;;;;;;15.65;4.60;;;;;;;;;;4928400;28;20047;-68
2023/06/08 08:06:08;;;;;;;15.70;4.40;;;;;;;;;;4926945;28;22011;-68
2023/06/08 08:08:35;;;;;;;16.85;5.40;;;;;;;;;;4923205;28;20050;-67
2023/06/08 08:11:01;;;;;;;17.10;4.47;;;;;;;;;;4923801;28;20149;-68
2023/06/08 08:13:28;;;;;;;11.95;4.55;;;;;;;;;;4912822;28;20043;-68
2023/06/08 08:15:54;;;;;;;12.20;4.32;;;;;;;;;;4929395;28;20082;-67
2023/06/08 08:18:20;;;;;;;12.68;3.97;;;;;;;;;;4912793;28;20628;-67
2023/06/08 08:20:46;;;;;;;16.23;5.18;;;;;;;;;;4908623;28;20078;-68
2023/06/08 08:23:12;;;;;;;13.40;4.60;;;;;;;;;;4925409;28;20110;-68
2023/06/08 08:25:40;;;;;;;17.02;5.40;;;;;;;;;;4910403;28;20724;-68
2023/06/08 08:28:06;;;;;;;16.40;5.57;;;;;;;;;;4909867;28;20086;-68
2023/06/08 08:30:32;;;;;;;12.00;4.40;;;;;;;;;;4930277;28;20060;-67
2023/06/08 08:32:58;;;;;;;13.00;4.40;;;;;;;;;;4926226;28;20130;-68
2023/06/08 08:35:28;;;;;;;16.60;4.60;;;;;;;;;;4908546;28;20047;-68
2023/06/08 08:37:55;;;;;;;17.02;5.03;;;;;;;;;;4926361;28;20051;-68
2023/06/08 08:40:22;;;;;;;10.05;4.28;;;;;;;;;;4925415;28;20047;-68
2023/06/08 08:42:53;;;;;;;14.40;4.55;;;;;;;;;;4925975;28;20499;-67
2023/06/08 08:45:21;;;;;;;12.20;4.47;;;;;;;;;;4904253;28;20059;-68
2023/06/08 08:47:50;;;;;;;15.45;4.82;;;;;;;;;;4904358;28;20051;-68
2023/06/08 08:50:17;;;;;;;14.68;4.35;;;;;;;;;;4905957;28;20055;-68
2023/06/08 08:52:53;;;;;;;10.48;4.32;;;;;;;;;;4925558;28;20722;-68
2023/06/08 08:55:27;;;;;;;12.40;3.92;;;;;;;;;;4921414;28;20079;-68
2023/06/08 08:57:59;;;;;;;15.25;4.15;;;;;;;;;;4930681;28;20399;-68
2023/06/08 09:00:26;;;;;;;11.60;4.03;;;;;;;;;;4924044;28;20055;-68
2023/06/08 09:02:52;;;;;;;10.07;3.70;;;;;;;;;;4934477;28;20046;-68
2023/06/08 09:05:18;;;;;;;10.07;3.45;;;;;;;;;;4927189;28;20094;-68
2023/06/08 09:07:45;;;;;;;14.38;5.35;;;;;;;;;;4930155;28;20082;-68
2023/06/08 09:10:14;;;;;;;9.93;3.60;;;;;;;;;;4925249;28;20051;-68
2023/06/08 09:12:41;;;;;;;9.30;4.25;;;;;;;;;;4927652;28;20043;-68
2023/06/08 09:15:08;;;;;;;11.82;4.43;;;;;;;;;;4931361;28;20138;-68
2023/06/08 09:17:37;;;;;;;13.85;4.43;;;;;;;;;;4915915;28;20522;-68
2023/06/08 09:20:10;;;;;;;10.85;4.20;;;;;;;;;;4930066;28;20126;-68
2023/06/08 09:22:36;;;;;;;12.85;3.78;;;;;;;;;;4927358;28;20523;-68
2023/06/08 09:25:11;;;;;;;8.65;3.78;;;;;;;;;;4915367;28;20042;-68
2023/06/08 09:27:38;;;;;;;16.15;4.28;;;;;;;;;;4914999;28;20048;-68
2023/06/08 09:30:22;;;;;;;9.85;3.47;;;;;;;;;;4916469;28;20051;-68
2023/06/08 09:32:48;;;;;;;11.48;4.10;;;;;;;;;;4931905;28;20059;-68
2023/06/08 09:35:22;;;;;;;16.98;3.85;;;;;;;;;;4929810;28;20699;-68
2023/06/08 09:37:50;;;;;;;10.63;3.95;;;;;;;;;;4930672;28;20660;-68
2023/06/08 09:40:22;;;;;;;9.13;4.03;;;;;;;;;;4928794;28;20047;-67
2023/06/08 09:42:50;;;;;;;10.80;3.85;;;;;;;;;;4913333;28;20051;-68
2023/06/08 09:45:17;;;;;;;14.90;4.00;;;;;;;;;;4913980;28;20066;-68
2023/06/08 09:47:44;;;;;;;11.45;3.78;;;;;;;;;;4911337;28;20057;-68
2023/06/08 09:50:10;;;;;;;8.07;3.20;;;;;;;;;;4927146;28;20464;-67
2023/06/08 09:52:37;;;;;;;15.30;3.78;;;;;;;;;;4930247;28;20039;-68
2023/06/08 09:55:04;;;;;;;13.63;4.72;;;;;;;;;;4927491;28;20530;-68
2023/06/08 09:57:33;;;;;;;11.48;4.22;;;;;;;;;;4906942;28;20503;-67
2023/06/08 10:00:20;;;;;;;11.90;3.58;;;;;;;;;;4930154;28;20154;-68
2023/06/08 10:03:06;;;;;;;16.08;4.10;;;;;;;;;;4938219;28;20129;-68
2023/06/08 10:05:33;;;;;;;11.38;3.60;;;;;;;;;;4928428;28;20084;-68
2023/06/08 10:08:01;;;;;;;7.65;3.55;;;;;;;;;;4936296;28;20107;-68
2023/06/08 10:10:35;;;;;;;9.73;3.70;;;;;;;;;;4934795;28;20086;-67
2023/06/08 10:13:01;;;;;;;14.02;3.97;;;;;;;;;;4937253;28;20042;-68
2023/06/08 10:15:31;;;;;;;12.55;3.38;;;;;;;;;;4936129;28;20039;-68
2023/06/08 10:17:58;;;;;;;12.43;3.85;;;;;;;;;;4931285;28;20039;-68
2023/06/08 10:20:24;;;;;;;7.70;3.50;;;;;;;;;;4930454;28;20126;-68
2023/06/08 10:22:51;;;;;;;9.55;3.33;;;;;;;;;;4924807;28;20052;-68
2023/06/08 10:25:18;;;;;;;10.75;3.55;;;;;;;;;;4905301;29;20127;-68
2023/06/08 10:27:48;;;;;;;9.07;3.60;;;;;;;;;;4923731;28;20051;-67
2023/06/08 10:30:26;;;;;;;8.13;3.25;;;;;;;;;;4926493;28;20096;-68
2023/06/08 10:32:52;;;;;;;10.10;3.70;;;;;;;;;;4913354;28;20047;-67
2023/06/08 10:35:18;;;;;;;9.82;3.85;;;;;;;;;;4897261;28;20054;-68
2023/06/08 10:37:45;;;;;;;9.80;3.63;;;;;;;;;;4913721;28;20407;-67
2023/06/08 10:40:12;;;;;;;6.75;3.08;;;;;;;;;;4929430;28;20043;-68
2023/06/08 10:42:38;;;;;;;15.02;3.90;;;;;;;;;;4918756;28;20612;-68
2023/06/08 10:45:05;;;;;;;12.32;3.60;;;;;;;;;;4927638;28;20051;-68
2023/06/08 10:47:34;;;;;;;9.23;3.25;;;;;;;;;;4928934;28;20161;-69
2023/06/08 10:50:01;;;;;;;11.00;3.47;;;;;;;;;;4917681;28;20051;-69
2023/06/08 10:52:27;;;;;;;10.40;3.45;;;;;;;;;;4927930;28;20051;-68
2023/06/08 10:54:57;;;;;;;10.27;3.78;;;;;;;;;;4925189;28;20054;-68
2023/06/08 10:57:43;;;;;;;15.70;3.83;;;;;;;;;;4926071;28;20204;-68
2023/06/08 11:00:32;;;;;;;11.75;3.70;;;;;;;;;;4917786;28;21378;-74
2023/06/08 11:03:04;;;;;;;14.05;3.40;;;;;;;;;;4911475;28;20055;-75
2023/06/08 11:05:34;;;;;;;10.95;3.25;;;;;;;;;;4926468;28;20058;-74
2023/06/08 11:08:01;;;;;;;13.38;3.80;;;;;;;;;;4927843;28;20402;-75
2023/06/08 11:10:27;;;;;;;13.55;3.47;;;;;;;;;;4915492;28;20057;-75
2023/06/08 11:12:54;;;;;;;13.90;3.28;;;;;;;;;;4914408;28;20047;-75
2023/06/08 11:15:21;;;;;;;11.20;2.90;;;;;;;;;;4916344;28;20105;-75
2023/06/08 11:17:52;;;;;;;13.05;3.20;;;;;;;;;;4932817;28;20095;-75
2023/06/08 11:20:23;;;;;;;14.05;3.53;;;;;;;;;;4920501;28;20056;-75
2023/06/08 11:22:50;;;;;;;13.93;2.85;;;;;;;;;;4933473;28;20138;-75
2023/06/08 11:25:19;;;;;;;11.43;3.08;;;;;;;;;;4916120;28;20051;-75
2023/06/08 11:27:45;;;;;;;13.48;4.00;;;;;;;;;;4927812;28;20048;-75
2023/06/08 11:30:18;;;;;;;10.45;3.13;;;;;;;;;;4912640;28;20055;-75
2023/06/08 11:32:46;;;;;;;12.50;3.72;;;;;;;;;;4898237;28;20051;-75
2023/06/08 11:35:12;;;;;;;9.95;3.22;;;;;;;;;;4900122;28;21154;-75
2023/06/08 11:37:41;;;;;;;12.05;2.95;;;;;;;;;;4917194;28;20089;-75
2023/06/08 11:40:13;;;;;;;8.25;3.05;;;;;;;;;;4932452;28;20055;-75
2023/06/08 11:42:40;;;;;;;15.45;3.40;;;;;;;;;;4906073;28;20051;-75
2023/06/08 11:45:06;;;;;;;9.50;2.97;;;;;;;;;;4916314;28;20137;-75
2023/06/08 11:47:33;;;;;;;8.90;3.25;;;;;;;;;;4918226;28;20502;-75
2023/06/08 11:50:00;;;;;;;8.43;2.78;;;;;;;;;;4915673;28;20111;-75
2023/06/08 11:52:27;;;;;;;13.38;4.35;;;;;;;;;;4895700;28;20408;-74
2023/06/08 11:54:57;;;;;;;8.70;3.65;;;;;;;;;;4928529;28;20939;-73
2023/06/08 11:57:43;;;;;;;15.52;3.22;;;;;;;;;;4892747;28;20062;-74
2023/06/08 12:00:15;;;;;;;9.35;3.15;;;;;;;;;;4921584;28;20049;-74
2023/06/08 12:02:41;;;;;;;11.98;3.50;;;;;;;;;;4910530;28;20611;-73
2023/06/08 12:05:14;;;;;;;12.43;3.00;;;;;;;;;;4906612;28;20047;-74
2023/06/08 12:07:40;;;;;;;6.57;2.78;;;;;;;;;;4922658;28;20667;-73
2023/06/08 12:10:06;;;;;;;13.13;3.13;;;;;;;;;;4913402;28;20733;-73
2023/06/08 12:12:32;;;;;;;11.45;3.13;;;;;;;;;;4893122;28;20099;-74
2023/06/08 12:14:59;;;;;;;8.55;2.45;;;;;;;;;;4915909;28;20073;-74
2023/06/08 12:17:26;;;;;;;10.15;3.08;;;;;;;;;;4927212;28;20795;-73
2023/06/08 12:19:55;;;;;;;7.43;2.92;;;;;;;;;;4912624;28;20054;-74
2023/06/08 12:22:21;;;;;;;9.73;2.72;;;;;;;;;;4897208;28;20043;-74
2023/06/08 12:24:47;;;;;;;8.35;2.83;;;;;;;;;;4913561;28;20125;-75
2023/06/08 12:27:14;;;;;;;6.80;2.40;;;;;;;;;;4914046;28;20047;-74
2023/06/08 12:29:41;;;;;;;8.93;2.80;;;;;;;;;;4914448;28;20047;-73
2023/06/08 12:32:07;;;;;;;10.63;2.75;;;;;;;;;;4922259;28;20566;-74
2023/06/08 12:34:34;;;;;;;9.77;3.20;;;;;;;;;;4911762;28;20518;-74
2023/06/08 12:37:00;;;;;;;7.43;2.70;;;;;;;;;;4912025;28;20050;-74
2023/06/08 12:39:26;;;;;;;8.98;2.92;;;;;;;;;;4911410;28;20066;-77
2023/06/08 12:41:52;;;;;;;9.98;3.22;;;;;;;;;;4914681;28;20058;-69
2023/06/08 12:44:18;;;;;;;11.75;3.33;;;;;;;;;;4929428;28;20082;-69
2023/06/08 12:46:44;;;;;;;10.35;2.85;;;;;;;;;;4928016;28;20756;-69
2023/06/08 12:49:10;;;;;;;10.70;2.92;;;;;;;;;;4918345;28;21003;-69
2023/06/08 12:51:37;;;;;;;8.05;2.65;;;;;;;;;;4915227;28;20051;-69
2023/06/08 12:54:03;;;;;;;8.52;2.90;;;;;;;;;;4929757;28;20058;-69
2023/06/08 12:56:29;;;;;;;8.95;3.10;;;;;;;;;;4929506;28;20043;-69
2023/06/08 12:58:55;;;;;;;10.98;2.63;;;;;;;;;;4912322;28;20038;-69
2023/06/08 13:01:22;;;;;;;9.95;3.10;;;;;;;;;;4928601;28;20047;-69
2023/06/08 13:03:48;;;;;;;13.38;2.90;;;;;;;;;;4910335;28;20184;-69
2023/06/08 13:06:14;;;;;;;9.43;2.75;;;;;;;;;;4913237;28;20500;-69
2023/06/08 13:08:40;;;;;;;11.40;3.20;;;;;;;;;;4913065;28;20047;-69
2023/06/08 13:11:06;;;;;;;9.25;2.70;;;;;;;;;;4915979;28;20047;-69
2023/06/08 13:13:32;;;;;;;11.23;3.42;;;;;;;;;;4929090;28;20089;-69
2023/06/08 13:16:01;;;;;;;12.70;2.63;;;;;;;;;;4914020;28;20063;-69
2023/06/08 13:18:27;;;;;;;11.70;4.00;;;;;;;;;;4930172;28;20061;-69
2023/06/08 13:20:53;;;;;;;11.55;3.30;;;;;;;;;;4929821;28;20166;-69
2023/06/08 13:23:20;;;;;;;11.52;3.15;;;;;;;;;;4914680;28;20047;-69
2023/06/08 13:25:46;;;;;;;11.68;3.60;;;;;;;;;;4908580;28;20586;-69
2023/06/08 13:28:13;;;;;;;8.57;2.75;;;;;;;;;;4929993;28;20043;-69
2023/06/08 13:30:40;;;;;;;8.15;2.80;;;;;;;;;;4927849;28;21985;-69
2023/06/08 13:33:06;;;;;;;8.18;2.78;;;;;;;;;;4908016;28;20126;-69
2023/06/08 13:35:32;;;;;;;11.20;3.00;;;;;;;;;;4928059;28;20055;-69
2023/06/08 13:37:59;;;;;;;12.27;3.40;;;;;;;;;;4910890;28;20035;-69
2023/06/08 13:40:27;;;;;;;11.93;3.53;;;;;;;;;;4911251;28;21087;-69
2023/06/08 13:42:53;;;;;;;10.70;3.30;;;;;;;;;;4924897;28;20055;-69
2023/06/08 13:45:20;;;;;;;8.80;3.03;;;;;;;;;;4914563;28;20063;-69
2023/06/08 13:47:47;;;;;;;8.27;2.85;;;;;;;;;;4927341;28;20403;-69
2023/06/08 13:50:13;;;;;;;9.48;3.53;;;;;;;;;;4928035;28;20047;-69
2023/06/08 13:52:39;;;;;;;13.57;3.30;;;;;;;;;;4928889;28;20122;-69
2023/06/08 13:55:05;;;;;;;9.07;3.45;;;;;;;;;;4928418;28;20039;-69
2023/06/08 13:57:31;;;;;;;8.18;3.42;;;;;;;;;;4914949;28;20051;-69
2023/06/08 13:59:57;;;;;;;13.05;3.13;;;;;;;;;;4911714;28;20058;-70
2023/06/08 14:02:23;;;;;;;10.45;3.28;;;;;;;;;;4925973;28;20103;-68
2023/06/08 14:04:50;;;;;;;10.70;3.03;;;;;;;;;;4928103;28;20040;-69
2023/06/08 14:07:16;;;;;;;13.52;4.07;;;;;;;;;;4915039;28;20062;-69
2023/06/08 14:09:43;;;;;;;13.43;3.92;;;;;;;;;;4928407;28;20066;-69
2023/06/08 14:12:09;;;;;;;13.52;4.18;;;;;;;;;;4929591;28;20101;-74
2023/06/08 14:14:36;;;;;;;11.57;3.53;;;;;;;;;;4941025;28;20491;-73
2023/06/08 14:17:02;;;;;;;15.93;4.63;;;;;;;;;;4938975;28;20031;-73
2023/06/08 14:19:28;;;;;;;10.38;3.80;;;;;;;;;;4953726;28;20483;-77
2023/06/08 14:21:54;;;;;;;12.02;4.13;;;;;;;;;;4955214;28;20055;-78
2023/06/08 14:24:20;;;;;;;10.60;3.55;;;;;;;;;;4915563;28;20131;-77
2023/06/08 14:26:46;;;;;;;12.10;4.43;;;;;;;;;;4927363;28;20054;-74
2023/06/08 14:29:12;;;;;;;16.77;4.00;;;;;;;;;;4905430;28;20051;-75
2023/06/08 14:31:38;;;;;;;16.77;3.90;;;;;;;;;;4910865;28;20130;-75